sensor_id;sensor_type;location;lat;lon;timestamp;P1;durP1;ratioP1;P2;durP2;ratioP2
68247;SDS011;55064;49.636;12.164;2024-03-02T00:02:24;39.78;;;16.58;;
68247;SDS011;55064;49.636;12.164;2024-03-02T00:04:50;41.83;;;16.20;;
68247;SDS011;55064;49.636;12.164;2024-03-02T00:07:15;41.92;;;15.77;;
68247;SDS011;55064;49.636;12.164;2024-03-02T00:09:41;41.67;;;16.33;;
68247;SDS011;55064;49.636;12.164;2024-03-02T00:12:07;41.17;;;16.13;;
68247;SDS011;55064;49.636;12.164;2024-03-02T00:14:33;41.53;;;16.23;;
68247;SDS011;55064;49.636;12.164;2024-03-02T00:16:58;41.37;;;15.37;;
68247;SDS011;55064;49.636;12.164;2024-03-02T00:19:24;38.55;;;15.52;;
68247;SDS011;55064;49.636;12.164;2024-03-02T00:21:50;42.27;;;16.27;;
68247;SDS011;55064;49.636;12.164;2024-03-02T00:24:20;39.15;;;15.82;;
68247;SDS011;55064;49.636;12.164;2024-03-02T00:26:47;40.38;;;16.60;;
68247;SDS011;55064;49.636;12.164;2024-03-02T00:29:14;44.70;;;17.47;;
68247;SDS011;55064;49.636;12.164;2024-03-02T00:31:41;47.17;;;18.10;;
68247;SDS011;55064;49.636;12.164;2024-03-02T00:34:06;45.47;;;16.05;;
68247;SDS011;55064;49.636;12.164;2024-03-02T00:36:32;48.77;;;19.33;;
68247;SDS011;55064;49.636;12.164;2024-03-02T00:38:58;52.90;;;18.65;;
68247;SDS011;55064;49.636;12.164;2024-03-02T00:43:59;52.03;;;18.58;;
68247;SDS011;55064;49.636;12.164;2024-03-02T00:46:33;46.60;;;18.03;;
68247;SDS011;55064;49.636;12.164;2024-03-02T00:48:59;52.10;;;18.05;;
68247;SDS011;55064;49.636;12.164;2024-03-02T00:51:27;46.63;;;18.23;;
68247;SDS011;55064;49.636;12.164;2024-03-02T00:53:54;45.00;;;18.00;;
68247;SDS011;55064;49.636;12.164;2024-03-02T00:56:21;49.95;;;18.00;;
68247;SDS011;55064;49.636;12.164;2024-03-02T00:58:48;48.83;;;18.47;;
68247;SDS011;55064;49.636;12.164;2024-03-02T01:01:13;44.67;;;17.35;;
68247;SDS011;55064;49.636;12.164;2024-03-02T01:03:39;46.67;;;17.20;;
68247;SDS011;55064;49.636;12.164;2024-03-02T01:06:06;45.53;;;18.05;;
68247;SDS011;55064;49.636;12.164;2024-03-02T01:08:32;50.00;;;17.98;;
68247;SDS011;55064;49.636;12.164;2024-03-02T01:10:58;50.60;;;19.15;;
68247;SDS011;55064;49.636;12.164;2024-03-02T01:13:23;50.30;;;18.97;;
68247;SDS011;55064;49.636;12.164;2024-03-02T01:15:49;50.60;;;18.27;;
68247;SDS011;55064;49.636;12.164;2024-03-02T01:18:14;51.17;;;17.95;;
68247;SDS011;55064;49.636;12.164;2024-03-02T01:20:40;53.60;;;19.60;;
68247;SDS011;55064;49.636;12.164;2024-03-02T01:23:06;55.95;;;19.60;;
68247;SDS011;55064;49.636;12.164;2024-03-02T01:25:31;50.30;;;18.73;;
68247;SDS011;55064;49.636;12.164;2024-03-02T01:27:57;49.67;;;19.33;;
68247;SDS011;55064;49.636;12.164;2024-03-02T01:30:22;53.70;;;20.10;;
68247;SDS011;55064;49.636;12.164;2024-03-02T01:32:48;51.07;;;17.43;;
68247;SDS011;55064;49.636;12.164;2024-03-02T01:35:13;46.17;;;19.00;;
68247;SDS011;55064;49.636;12.164;2024-03-02T01:37:40;43.22;;;16.95;;
68247;SDS011;55064;49.636;12.164;2024-03-02T01:40:06;43.65;;;16.95;;
68247;SDS011;55064;49.636;12.164;2024-03-02T01:42:35;49.80;;;17.90;;
68247;SDS011;55064;49.636;12.164;2024-03-02T01:45:01;46.55;;;16.95;;
68247;SDS011;55064;49.636;12.164;2024-03-02T01:47:28;41.33;;;16.08;;
68247;SDS011;55064;49.636;12.164;2024-03-02T01:49:53;39.63;;;16.67;;
68247;SDS011;55064;49.636;12.164;2024-03-02T01:52:19;45.33;;;16.37;;
68247;SDS011;55064;49.636;12.164;2024-03-02T01:54:45;41.55;;;16.73;;
68247;SDS011;55064;49.636;12.164;2024-03-02T01:57:11;41.70;;;15.97;;
68247;SDS011;55064;49.636;12.164;2024-03-02T01:59:36;41.00;;;16.67;;
68247;SDS011;55064;49.636;12.164;2024-03-02T02:02:01;44.55;;;15.93;;
68247;SDS011;55064;49.636;12.164;2024-03-02T02:04:27;38.30;;;15.07;;
68247;SDS011;55064;49.636;12.164;2024-03-02T02:06:53;47.40;;;17.70;;
68247;SDS011;55064;49.636;12.164;2024-03-02T02:09:19;48.75;;;17.48;;
68247;SDS011;55064;49.636;12.164;2024-03-02T02:11:44;48.13;;;17.87;;
68247;SDS011;55064;49.636;12.164;2024-03-02T02:14:10;43.20;;;17.37;;
68247;SDS011;55064;49.636;12.164;2024-03-02T02:16:36;45.85;;;17.70;;
68247;SDS011;55064;49.636;12.164;2024-03-02T02:19:01;46.67;;;16.67;;
68247;SDS011;55064;49.636;12.164;2024-03-02T02:21:28;50.58;;;17.60;;
68247;SDS011;55064;49.636;12.164;2024-03-02T02:23:53;46.67;;;17.17;;
68247;SDS011;55064;49.636;12.164;2024-03-02T02:26:19;48.73;;;17.83;;
68247;SDS011;55064;49.636;12.164;2024-03-02T02:28:44;46.63;;;17.93;;
68247;SDS011;55064;49.636;12.164;2024-03-02T02:31:15;50.70;;;18.13;;
68247;SDS011;55064;49.636;12.164;2024-03-02T02:33:41;47.75;;;17.48;;
68247;SDS011;55064;49.636;12.164;2024-03-02T02:36:07;51.80;;;19.08;;
68247;SDS011;55064;49.636;12.164;2024-03-02T02:38:32;51.10;;;19.27;;
68247;SDS011;55064;49.636;12.164;2024-03-02T02:40:59;54.67;;;19.75;;
68247;SDS011;55064;49.636;12.164;2024-03-02T02:43:25;50.23;;;18.60;;
68247;SDS011;55064;49.636;12.164;2024-03-02T02:45:50;48.17;;;17.73;;
68247;SDS011;55064;49.636;12.164;2024-03-02T02:48:15;53.57;;;19.10;;
68247;SDS011;55064;49.636;12.164;2024-03-02T02:50:41;52.57;;;18.93;;
68247;SDS011;55064;49.636;12.164;2024-03-02T02:53:06;47.93;;;17.40;;
68247;SDS011;55064;49.636;12.164;2024-03-02T02:55:34;47.75;;;18.17;;
68247;SDS011;55064;49.636;12.164;2024-03-02T02:58:00;50.90;;;18.63;;
68247;SDS011;55064;49.636;12.164;2024-03-02T03:00:25;51.60;;;18.95;;
68247;SDS011;55064;49.636;12.164;2024-03-02T03:02:50;51.33;;;18.80;;
68247;SDS011;55064;49.636;12.164;2024-03-02T03:05:16;51.40;;;19.00;;
68247;SDS011;55064;49.636;12.164;2024-03-02T03:07:42;52.63;;;18.97;;
68247;SDS011;55064;49.636;12.164;2024-03-02T03:10:09;56.47;;;19.20;;
68247;SDS011;55064;49.636;12.164;2024-03-02T03:12:34;50.83;;;18.40;;
68247;SDS011;55064;49.636;12.164;2024-03-02T03:15:00;52.00;;;17.87;;
68247;SDS011;55064;49.636;12.164;2024-03-02T03:17:27;51.00;;;18.97;;
68247;SDS011;55064;49.636;12.164;2024-03-02T03:19:52;52.08;;;18.13;;
68247;SDS011;55064;49.636;12.164;2024-03-02T03:22:18;47.93;;;17.57;;
68247;SDS011;55064;49.636;12.164;2024-03-02T03:24:43;50.60;;;17.07;;
68247;SDS011;55064;49.636;12.164;2024-03-02T03:27:09;50.33;;;17.52;;
68247;SDS011;55064;49.636;12.164;2024-03-02T03:29:36;48.30;;;17.63;;
68247;SDS011;55064;49.636;12.164;2024-03-02T03:32:02;43.80;;;17.03;;
68247;SDS011;55064;49.636;12.164;2024-03-02T03:34:28;51.35;;;17.45;;
68247;SDS011;55064;49.636;12.164;2024-03-02T03:36:54;52.67;;;17.27;;
68247;SDS011;55064;49.636;12.164;2024-03-02T03:39:19;48.08;;;17.85;;
68247;SDS011;55064;49.636;12.164;2024-03-02T03:41:45;46.13;;;18.17;;
68247;SDS011;55064;49.636;12.164;2024-03-02T03:44:10;46.70;;;16.93;;
68247;SDS011;55064;49.636;12.164;2024-03-02T03:46:35;50.17;;;18.23;;
68247;SDS011;55064;49.636;12.164;2024-03-02T03:49:01;45.05;;;17.73;;
68247;SDS011;55064;49.636;12.164;2024-03-02T03:51:27;48.73;;;15.90;;
68247;SDS011;55064;49.636;12.164;2024-03-02T03:53:52;54.87;;;17.47;;
68247;SDS011;55064;49.636;12.164;2024-03-02T03:56:17;42.80;;;16.13;;
68247;SDS011;55064;49.636;12.164;2024-03-02T03:58:43;44.33;;;16.93;;
68247;SDS011;55064;49.636;12.164;2024-03-02T04:01:08;42.50;;;16.43;;
68247;SDS011;55064;49.636;12.164;2024-03-02T04:03:34;49.22;;;17.15;;
68247;SDS011;55064;49.636;12.164;2024-03-02T04:05:59;48.13;;;17.07;;
68247;SDS011;55064;49.636;12.164;2024-03-02T04:08:25;46.70;;;16.97;;
68247;SDS011;55064;49.636;12.164;2024-03-02T04:10:50;46.97;;;16.23;;
68247;SDS011;55064;49.636;12.164;2024-03-02T04:13:15;42.83;;;16.33;;
68247;SDS011;55064;49.636;12.164;2024-03-02T04:15:42;49.30;;;16.60;;
68247;SDS011;55064;49.636;12.164;2024-03-02T04:18:08;42.07;;;16.30;;
68247;SDS011;55064;49.636;12.164;2024-03-02T04:20:33;46.42;;;16.52;;
68247;SDS011;55064;49.636;12.164;2024-03-02T04:22:58;52.87;;;18.27;;
68247;SDS011;55064;49.636;12.164;2024-03-02T04:25:24;57.03;;;17.57;;
68247;SDS011;55064;49.636;12.164;2024-03-02T04:27:49;48.33;;;16.40;;
68247;SDS011;55064;49.636;12.164;2024-03-02T04:30:15;56.43;;;18.57;;
68247;SDS011;55064;49.636;12.164;2024-03-02T04:32:40;54.93;;;17.30;;
68247;SDS011;55064;49.636;12.164;2024-03-02T04:35:05;56.10;;;17.93;;
68247;SDS011;55064;49.636;12.164;2024-03-02T04:37:34;55.10;;;18.53;;
68247;SDS011;55064;49.636;12.164;2024-03-02T04:39:59;56.35;;;18.00;;
68247;SDS011;55064;49.636;12.164;2024-03-02T04:42:24;57.03;;;19.00;;
68247;SDS011;55064;49.636;12.164;2024-03-02T04:44:50;53.70;;;18.83;;
68247;SDS011;55064;49.636;12.164;2024-03-02T04:47:15;52.27;;;17.03;;
68247;SDS011;55064;49.636;12.164;2024-03-02T04:49:41;50.33;;;17.60;;
68247;SDS011;55064;49.636;12.164;2024-03-02T04:52:06;52.43;;;17.67;;
68247;SDS011;55064;49.636;12.164;2024-03-02T04:54:31;46.20;;;15.97;;
68247;SDS011;55064;49.636;12.164;2024-03-02T04:56:57;51.20;;;16.98;;
68247;SDS011;55064;49.636;12.164;2024-03-02T04:59:23;46.23;;;16.53;;
68247;SDS011;55064;49.636;12.164;2024-03-02T05:01:48;48.50;;;16.23;;
68247;SDS011;55064;49.636;12.164;2024-03-02T05:04:14;41.67;;;15.60;;
68247;SDS011;55064;49.636;12.164;2024-03-02T05:06:40;50.40;;;16.50;;
68247;SDS011;55064;49.636;12.164;2024-03-02T05:09:09;44.80;;;15.45;;
68247;SDS011;55064;49.636;12.164;2024-03-02T05:11:35;43.60;;;15.85;;
68247;SDS011;55064;49.636;12.164;2024-03-02T05:14:03;45.55;;;16.40;;
68247;SDS011;55064;49.636;12.164;2024-03-02T05:16:29;41.42;;;15.95;;
68247;SDS011;55064;49.636;12.164;2024-03-02T05:18:58;43.67;;;15.67;;
68247;SDS011;55064;49.636;12.164;2024-03-02T05:21:23;42.70;;;15.65;;
68247;SDS011;55064;49.636;12.164;2024-03-02T05:23:48;40.37;;;14.73;;
68247;SDS011;55064;49.636;12.164;2024-03-02T05:26:14;37.37;;;13.83;;
68247;SDS011;55064;49.636;12.164;2024-03-02T05:28:39;43.53;;;14.47;;
68247;SDS011;55064;49.636;12.164;2024-03-02T05:31:05;45.83;;;15.43;;
68247;SDS011;55064;49.636;12.164;2024-03-02T05:33:30;37.67;;;14.63;;
68247;SDS011;55064;49.636;12.164;2024-03-02T05:35:57;39.00;;;15.20;;
68247;SDS011;55064;49.636;12.164;2024-03-02T05:38:23;43.70;;;15.10;;
68247;SDS011;55064;49.636;12.164;2024-03-02T05:40:48;43.50;;;16.30;;
68247;SDS011;55064;49.636;12.164;2024-03-02T05:43:14;40.07;;;13.53;;
68247;SDS011;55064;49.636;12.164;2024-03-02T05:45:39;42.77;;;14.87;;
68247;SDS011;55064;49.636;12.164;2024-03-02T05:48:08;38.23;;;14.73;;
68247;SDS011;55064;49.636;12.164;2024-03-02T05:50:34;39.42;;;15.48;;
68247;SDS011;55064;49.636;12.164;2024-03-02T05:52:59;40.27;;;15.23;;
68247;SDS011;55064;49.636;12.164;2024-03-02T05:55:25;41.77;;;15.23;;
68247;SDS011;55064;49.636;12.164;2024-03-02T05:57:50;42.03;;;14.87;;
68247;SDS011;55064;49.636;12.164;2024-03-02T06:00:31;41.70;;;14.98;;
68247;SDS011;55064;49.636;12.164;2024-03-02T06:02:56;42.42;;;15.27;;
68247;SDS011;55064;49.636;12.164;2024-03-02T06:05:22;39.83;;;14.67;;
68247;SDS011;55064;49.636;12.164;2024-03-02T06:07:47;40.23;;;13.73;;
68247;SDS011;55064;49.636;12.164;2024-03-02T06:10:13;43.77;;;14.00;;
68247;SDS011;55064;49.636;12.164;2024-03-02T06:12:39;40.13;;;14.55;;
68247;SDS011;55064;49.636;12.164;2024-03-02T06:15:04;39.87;;;15.03;;
68247;SDS011;55064;49.636;12.164;2024-03-02T06:17:30;42.83;;;16.55;;
68247;SDS011;55064;49.636;12.164;2024-03-02T06:19:55;41.70;;;15.10;;
68247;SDS011;55064;49.636;12.164;2024-03-02T06:22:21;48.10;;;16.30;;
68247;SDS011;55064;49.636;12.164;2024-03-02T06:24:48;36.60;;;13.98;;
68247;SDS011;55064;49.636;12.164;2024-03-02T06:27:14;41.78;;;15.68;;
68247;SDS011;55064;49.636;12.164;2024-03-02T06:29:39;42.57;;;15.47;;
68247;SDS011;55064;49.636;12.164;2024-03-02T06:32:05;45.17;;;15.77;;
68247;SDS011;55064;49.636;12.164;2024-03-02T06:34:30;47.90;;;17.25;;
68247;SDS011;55064;49.636;12.164;2024-03-02T06:36:56;47.27;;;17.17;;
68247;SDS011;55064;49.636;12.164;2024-03-02T06:39:21;46.90;;;16.90;;
68247;SDS011;55064;49.636;12.164;2024-03-02T06:41:46;50.50;;;16.53;;
68247;SDS011;55064;49.636;12.164;2024-03-02T06:44:12;47.28;;;17.27;;
68247;SDS011;55064;49.636;12.164;2024-03-02T06:46:38;50.07;;;17.37;;
68247;SDS011;55064;49.636;12.164;2024-03-02T06:49:03;48.47;;;18.42;;
68247;SDS011;55064;49.636;12.164;2024-03-02T06:51:29;47.97;;;16.33;;
68247;SDS011;55064;49.636;12.164;2024-03-02T06:53:55;47.47;;;15.75;;
68247;SDS011;55064;49.636;12.164;2024-03-02T06:56:22;48.67;;;16.73;;
68247;SDS011;55064;49.636;12.164;2024-03-02T06:58:47;37.47;;;13.48;;
68247;SDS011;55064;49.636;12.164;2024-03-02T07:01:12;45.40;;;14.93;;
68247;SDS011;55064;49.636;12.164;2024-03-02T07:03:38;44.50;;;15.27;;
68247;SDS011;55064;49.636;12.164;2024-03-02T07:06:07;46.10;;;16.25;;
68247;SDS011;55064;49.636;12.164;2024-03-02T07:08:32;42.23;;;16.50;;
68247;SDS011;55064;49.636;12.164;2024-03-02T07:10:58;45.65;;;15.90;;
68247;SDS011;55064;49.636;12.164;2024-03-02T07:13:23;46.50;;;16.20;;
68247;SDS011;55064;49.636;12.164;2024-03-02T07:15:49;43.30;;;14.23;;
68247;SDS011;55064;49.636;12.164;2024-03-02T07:18:33;43.10;;;13.93;;
68247;SDS011;55064;49.636;12.164;2024-03-02T07:20:58;47.73;;;15.77;;
68247;SDS011;55064;49.636;12.164;2024-03-02T07:23:26;46.50;;;15.52;;
68247;SDS011;55064;49.636;12.164;2024-03-02T07:25:55;42.13;;;15.57;;
68247;SDS011;55064;49.636;12.164;2024-03-02T07:28:21;42.20;;;14.98;;
68247;SDS011;55064;49.636;12.164;2024-03-02T07:31:02;42.57;;;14.60;;
68247;SDS011;55064;49.636;12.164;2024-03-02T07:33:29;43.15;;;14.57;;
68247;SDS011;55064;49.636;12.164;2024-03-02T07:35:55;49.65;;;15.25;;
68247;SDS011;55064;49.636;12.164;2024-03-02T07:38:21;39.70;;;15.15;;
68247;SDS011;55064;49.636;12.164;2024-03-02T07:40:48;45.80;;;16.35;;
68247;SDS011;55064;49.636;12.164;2024-03-02T07:43:18;45.57;;;15.07;;
68247;SDS011;55064;49.636;12.164;2024-03-02T07:45:44;47.65;;;15.13;;
68247;SDS011;55064;49.636;12.164;2024-03-02T07:48:09;48.63;;;16.27;;
68247;SDS011;55064;49.636;12.164;2024-03-02T07:50:37;44.80;;;15.00;;
68247;SDS011;55064;49.636;12.164;2024-03-02T07:53:03;47.08;;;15.88;;
68247;SDS011;55064;49.636;12.164;2024-03-02T07:55:29;41.97;;;14.90;;
68247;SDS011;55064;49.636;12.164;2024-03-02T07:57:55;43.13;;;15.37;;
68247;SDS011;55064;49.636;12.164;2024-03-02T08:00:21;46.73;;;15.37;;
68247;SDS011;55064;49.636;12.164;2024-03-02T08:02:48;43.53;;;15.38;;
68247;SDS011;55064;49.636;12.164;2024-03-02T08:05:14;39.65;;;14.75;;
68247;SDS011;55064;49.636;12.164;2024-03-02T08:07:39;42.50;;;14.17;;
68247;SDS011;55064;49.636;12.164;2024-03-02T08:10:06;42.22;;;14.52;;
68247;SDS011;55064;49.636;12.164;2024-03-02T08:12:32;49.63;;;16.00;;
68247;SDS011;55064;49.636;12.164;2024-03-02T08:14:57;41.67;;;15.40;;
68247;SDS011;55064;49.636;12.164;2024-03-02T08:17:22;39.73;;;13.53;;
68247;SDS011;55064;49.636;12.164;2024-03-02T08:19:48;47.50;;;16.27;;
68247;SDS011;55064;49.636;12.164;2024-03-02T08:22:16;44.97;;;15.50;;
68247;SDS011;55064;49.636;12.164;2024-03-02T08:24:42;45.28;;;14.77;;
68247;SDS011;55064;49.636;12.164;2024-03-02T08:27:07;38.97;;;14.07;;
68247;SDS011;55064;49.636;12.164;2024-03-02T08:29:34;37.13;;;14.63;;
68247;SDS011;55064;49.636;12.164;2024-03-02T08:31:59;42.47;;;15.20;;
68247;SDS011;55064;49.636;12.164;2024-03-02T08:34:25;43.33;;;14.05;;
68247;SDS011;55064;49.636;12.164;2024-03-02T08:36:50;37.07;;;12.93;;
68247;SDS011;55064;49.636;12.164;2024-03-02T08:39:16;40.87;;;14.20;;
68247;SDS011;55064;49.636;12.164;2024-03-02T08:41:43;39.40;;;14.20;;
68247;SDS011;55064;49.636;12.164;2024-03-02T08:44:09;40.33;;;15.23;;
68247;SDS011;55064;49.636;12.164;2024-03-02T08:46:35;45.23;;;15.17;;
68247;SDS011;55064;49.636;12.164;2024-03-02T08:49:01;39.97;;;13.50;;
68247;SDS011;55064;49.636;12.164;2024-03-02T08:51:26;36.43;;;14.20;;
68247;SDS011;55064;49.636;12.164;2024-03-02T08:53:51;39.67;;;13.70;;
68247;SDS011;55064;49.636;12.164;2024-03-02T08:56:17;36.10;;;13.77;;
68247;SDS011;55064;49.636;12.164;2024-03-02T08:58:42;39.93;;;14.27;;
68247;SDS011;55064;49.636;12.164;2024-03-02T09:01:09;35.92;;;13.50;;
68247;SDS011;55064;49.636;12.164;2024-03-02T09:03:35;35.90;;;13.20;;
68247;SDS011;55064;49.636;12.164;2024-03-02T09:06:02;39.05;;;14.07;;
68247;SDS011;55064;49.636;12.164;2024-03-02T09:08:27;39.35;;;13.75;;
68247;SDS011;55064;49.636;12.164;2024-03-02T09:10:53;38.70;;;13.40;;
68247;SDS011;55064;49.636;12.164;2024-03-02T09:13:19;39.40;;;15.30;;
68247;SDS011;55064;49.636;12.164;2024-03-02T09:15:44;38.08;;;14.52;;
68247;SDS011;55064;49.636;12.164;2024-03-02T09:18:10;31.30;;;12.40;;
68247;SDS011;55064;49.636;12.164;2024-03-02T09:20:35;37.70;;;13.23;;
68247;SDS011;55064;49.636;12.164;2024-03-02T09:23:01;35.57;;;12.77;;
68247;SDS011;55064;49.636;12.164;2024-03-02T09:25:26;34.90;;;12.57;;
68247;SDS011;55064;49.636;12.164;2024-03-02T09:27:52;29.40;;;11.20;;
68247;SDS011;55064;49.636;12.164;2024-03-02T09:30:17;35.63;;;13.30;;
68247;SDS011;55064;49.636;12.164;2024-03-02T09:32:43;36.17;;;13.07;;
68247;SDS011;55064;49.636;12.164;2024-03-02T09:35:08;32.27;;;12.33;;
68247;SDS011;55064;49.636;12.164;2024-03-02T09:37:34;33.53;;;12.57;;
68247;SDS011;55064;49.636;12.164;2024-03-02T09:40:00;36.65;;;12.25;;
68247;SDS011;55064;49.636;12.164;2024-03-02T09:42:26;36.80;;;13.37;;
68247;SDS011;55064;49.636;12.164;2024-03-02T09:44:52;37.38;;;13.77;;
68247;SDS011;55064;49.636;12.164;2024-03-02T09:47:18;37.03;;;13.10;;
68247;SDS011;55064;49.636;12.164;2024-03-02T09:49:43;38.60;;;13.30;;
68247;SDS011;55064;49.636;12.164;2024-03-02T09:52:09;40.47;;;14.93;;
68247;SDS011;55064;49.636;12.164;2024-03-02T09:54:35;37.30;;;13.33;;
68247;SDS011;55064;49.636;12.164;2024-03-02T09:57:00;37.38;;;13.30;;
68247;SDS011;55064;49.636;12.164;2024-03-02T09:59:27;32.70;;;13.38;;
68247;SDS011;55064;49.636;12.164;2024-03-02T10:04:26;40.22;;;13.55;;
68247;SDS011;55064;49.636;12.164;2024-03-02T10:09:37;36.47;;;12.98;;
68247;SDS011;55064;49.636;12.164;2024-03-02T10:12:06;39.80;;;14.67;;
68247;SDS011;55064;49.636;12.164;2024-03-02T10:14:33;36.38;;;13.35;;
68247;SDS011;55064;49.636;12.164;2024-03-02T10:17:02;39.60;;;14.83;;
68247;SDS011;55064;49.636;12.164;2024-03-02T10:19:31;35.28;;;13.48;;
68247;SDS011;55064;49.636;12.164;2024-03-02T10:22:00;36.38;;;14.43;;
68247;SDS011;55064;49.636;12.164;2024-03-02T10:24:28;38.95;;;14.63;;
68247;SDS011;55064;49.636;12.164;2024-03-02T10:27:07;35.67;;;13.57;;
68247;SDS011;55064;49.636;12.164;2024-03-02T10:29:39;37.85;;;13.68;;
68247;SDS011;55064;49.636;12.164;2024-03-02T10:32:05;33.83;;;12.98;;
68247;SDS011;55064;49.636;12.164;2024-03-02T10:34:34;35.83;;;12.90;;
68247;SDS011;55064;49.636;12.164;2024-03-02T10:37:00;38.07;;;14.37;;
68247;SDS011;55064;49.636;12.164;2024-03-02T10:39:26;33.45;;;13.13;;
68247;SDS011;55064;49.636;12.164;2024-03-02T10:41:52;35.73;;;12.80;;
68247;SDS011;55064;49.636;12.164;2024-03-02T10:44:20;29.98;;;11.95;;
68247;SDS011;55064;49.636;12.164;2024-03-02T10:46:47;31.33;;;12.45;;
68247;SDS011;55064;49.636;12.164;2024-03-02T10:49:15;39.28;;;13.05;;
68247;SDS011;55064;49.636;12.164;2024-03-02T10:51:40;30.73;;;11.90;;
68247;SDS011;55064;49.636;12.164;2024-03-02T10:54:06;32.00;;;13.30;;
68247;SDS011;55064;49.636;12.164;2024-03-02T10:56:43;32.93;;;12.70;;
68247;SDS011;55064;49.636;12.164;2024-03-02T11:02:01;31.95;;;12.75;;
68247;SDS011;55064;49.636;12.164;2024-03-02T11:04:28;34.93;;;12.77;;
68247;SDS011;55064;49.636;12.164;2024-03-02T11:09:35;35.10;;;13.25;;
68247;SDS011;55064;49.636;12.164;2024-03-02T11:14:49;34.10;;;14.40;;
68247;SDS011;55064;49.636;12.164;2024-03-02T11:17:17;38.07;;;13.30;;
68247;SDS011;55064;49.636;12.164;2024-03-02T11:19:43;33.70;;;13.05;;
68247;SDS011;55064;49.636;12.164;2024-03-02T11:22:10;34.22;;;12.90;;
68247;SDS011;55064;49.636;12.164;2024-03-02T11:24:37;31.90;;;13.10;;
68247;SDS011;55064;49.636;12.164;2024-03-02T11:27:03;33.50;;;12.40;;
68247;SDS011;55064;49.636;12.164;2024-03-02T11:32:02;32.42;;;12.68;;
68247;SDS011;55064;49.636;12.164;2024-03-02T11:34:35;35.47;;;12.88;;
68247;SDS011;55064;49.636;12.164;2024-03-02T11:37:01;32.87;;;12.70;;
68247;SDS011;55064;49.636;12.164;2024-03-02T11:39:28;36.08;;;13.35;;
68247;SDS011;55064;49.636;12.164;2024-03-02T11:41:54;35.03;;;11.65;;
68247;SDS011;55064;49.636;12.164;2024-03-02T11:44:21;33.33;;;13.38;;
68247;SDS011;55064;49.636;12.164;2024-03-02T11:46:46;29.77;;;12.60;;
68247;SDS011;55064;49.636;12.164;2024-03-02T11:49:26;28.40;;;12.35;;
68247;SDS011;55064;49.636;12.164;2024-03-02T11:52:01;31.55;;;12.27;;
68247;SDS011;55064;49.636;12.164;2024-03-02T11:54:27;33.07;;;11.60;;
68247;SDS011;55064;49.636;12.164;2024-03-02T11:56:58;32.28;;;12.38;;
68247;SDS011;55064;49.636;12.164;2024-03-02T11:59:24;31.02;;;12.52;;
68247;SDS011;55064;49.636;12.164;2024-03-02T12:01:51;32.83;;;12.93;;
68247;SDS011;55064;49.636;12.164;2024-03-02T12:04:17;30.17;;;11.97;;
68247;SDS011;55064;49.636;12.164;2024-03-02T12:06:43;33.85;;;12.25;;
68247;SDS011;55064;49.636;12.164;2024-03-02T12:09:09;30.43;;;11.57;;
68247;SDS011;55064;49.636;12.164;2024-03-02T12:11:37;32.65;;;12.05;;
68247;SDS011;55064;49.636;12.164;2024-03-02T12:14:02;27.53;;;11.27;;
68247;SDS011;55064;49.636;12.164;2024-03-02T12:16:29;28.00;;;10.85;;
68247;SDS011;55064;49.636;12.164;2024-03-02T12:18:55;32.77;;;11.70;;
68247;SDS011;55064;49.636;12.164;2024-03-02T12:21:20;30.25;;;10.65;;
68247;SDS011;55064;49.636;12.164;2024-03-02T12:23:46;27.37;;;10.40;;
68247;SDS011;55064;49.636;12.164;2024-03-02T12:26:11;22.37;;;9.57;;
68247;SDS011;55064;49.636;12.164;2024-03-02T12:28:37;24.20;;;10.43;;
68247;SDS011;55064;49.636;12.164;2024-03-02T12:31:02;23.63;;;9.33;;
68247;SDS011;55064;49.636;12.164;2024-03-02T12:33:28;20.42;;;9.25;;
68247;SDS011;55064;49.636;12.164;2024-03-02T12:35:56;24.83;;;10.07;;
68247;SDS011;55064;49.636;12.164;2024-03-02T12:38:22;25.10;;;9.48;;
68247;SDS011;55064;49.636;12.164;2024-03-02T12:40:50;25.25;;;10.13;;
68247;SDS011;55064;49.636;12.164;2024-03-02T12:43:17;26.02;;;9.63;;
68247;SDS011;55064;49.636;12.164;2024-03-02T12:45:43;28.00;;;11.00;;
68247;SDS011;55064;49.636;12.164;2024-03-02T12:48:08;26.60;;;10.47;;
68247;SDS011;55064;49.636;12.164;2024-03-02T12:50:33;24.95;;;10.07;;
68247;SDS011;55064;49.636;12.164;2024-03-02T12:52:59;23.67;;;9.90;;
68247;SDS011;55064;49.636;12.164;2024-03-02T12:55:24;23.50;;;9.40;;
68247;SDS011;55064;49.636;12.164;2024-03-02T12:57:51;20.65;;;9.00;;
68247;SDS011;55064;49.636;12.164;2024-03-02T13:00:17;23.67;;;9.48;;
68247;SDS011;55064;49.636;12.164;2024-03-02T13:02:45;25.95;;;9.63;;
68247;SDS011;55064;49.636;12.164;2024-03-02T13:05:11;23.43;;;10.27;;
68247;SDS011;55064;49.636;12.164;2024-03-02T13:07:40;22.45;;;10.13;;
68247;SDS011;55064;49.636;12.164;2024-03-02T13:10:10;21.87;;;9.23;;
68247;SDS011;55064;49.636;12.164;2024-03-02T13:12:36;23.38;;;9.65;;
68247;SDS011;55064;49.636;12.164;2024-03-02T13:15:02;23.63;;;8.93;;
68247;SDS011;55064;49.636;12.164;2024-03-02T13:17:28;24.40;;;9.40;;
68247;SDS011;55064;49.636;12.164;2024-03-02T13:19:57;20.88;;;8.50;;
68247;SDS011;55064;49.636;12.164;2024-03-02T13:22:26;25.63;;;9.55;;
68247;SDS011;55064;49.636;12.164;2024-03-02T13:24:52;25.10;;;9.57;;
68247;SDS011;55064;49.636;12.164;2024-03-02T13:27:21;19.70;;;8.52;;
68247;SDS011;55064;49.636;12.164;2024-03-02T13:29:47;21.27;;;8.70;;
68247;SDS011;55064;49.636;12.164;2024-03-02T13:32:13;23.23;;;9.25;;
68247;SDS011;55064;49.636;12.164;2024-03-02T13:34:41;22.08;;;9.45;;
68247;SDS011;55064;49.636;12.164;2024-03-02T13:37:07;19.33;;;8.77;;
68247;SDS011;55064;49.636;12.164;2024-03-02T13:39:33;19.20;;;7.82;;
68247;SDS011;55064;49.636;12.164;2024-03-02T13:42:04;19.83;;;7.00;;
68247;SDS011;55064;49.636;12.164;2024-03-02T13:44:32;17.50;;;6.25;;
68247;SDS011;55064;49.636;12.164;2024-03-02T13:46:59;20.67;;;6.37;;
68247;SDS011;55064;49.636;12.164;2024-03-02T13:49:25;18.92;;;7.53;;
68247;SDS011;55064;49.636;12.164;2024-03-02T13:51:58;18.23;;;7.43;;
68247;SDS011;55064;49.636;12.164;2024-03-02T13:54:25;20.30;;;7.45;;
68247;SDS011;55064;49.636;12.164;2024-03-02T13:56:51;19.35;;;7.25;;
68247;SDS011;55064;49.636;12.164;2024-03-02T13:59:17;20.47;;;8.00;;
68247;SDS011;55064;49.636;12.164;2024-03-02T14:01:42;18.52;;;7.47;;
68247;SDS011;55064;49.636;12.164;2024-03-02T14:04:08;21.60;;;8.07;;
68247;SDS011;55064;49.636;12.164;2024-03-02T14:06:34;20.63;;;7.97;;
68247;SDS011;55064;49.636;12.164;2024-03-02T14:08:59;19.33;;;7.97;;
68247;SDS011;55064;49.636;12.164;2024-03-02T14:11:24;20.77;;;7.47;;
68247;SDS011;55064;49.636;12.164;2024-03-02T14:13:50;20.57;;;8.60;;
68247;SDS011;55064;49.636;12.164;2024-03-02T14:16:19;22.47;;;8.50;;
68247;SDS011;55064;49.636;12.164;2024-03-02T14:18:45;19.30;;;7.95;;
68247;SDS011;55064;49.636;12.164;2024-03-02T14:21:10;19.07;;;7.53;;
68247;SDS011;55064;49.636;12.164;2024-03-02T14:23:36;19.77;;;7.93;;
68247;SDS011;55064;49.636;12.164;2024-03-02T14:26:01;20.13;;;7.63;;